Time;durP1;ratioP1;P1;durP2;ratioP2;P2;SDS_P1;SDS_P2;PMS_P1;PMS_P2;Temp;Humidity;BMP_temperature;BMP_pressure;BME280_temperature;BME280_humidity;BME280_pressure;Samples;Min_cycle;Max_cycle;Signal;HPM_P1;HPM_P2
2022/04/01 00:00:19;;;;;;;1.27;0.63;;;10.80;76.90;;;;;;5069247;28;20078;-76
2022/04/01 00:02:45;;;;;;;3.13;0.90;;;10.80;76.80;;;;;;5069322;28;20115;-76
2022/04/01 00:05:11;;;;;;;4.28;0.93;;;10.80;76.80;;;;;;5067956;28;20036;-77
2022/04/01 00:07:40;;;;;;;1.80;0.65;;;10.80;76.90;;;;;;5084929;28;20037;-77
2022/04/01 00:10:08;;;;;;;1.50;0.70;;;10.80;76.80;;;;;;5069560;28;20432;-76
2022/04/01 00:12:39;;;;;;;2.33;0.70;;;10.80;76.90;;;;;;5069895;28;20033;-76
2022/04/01 00:15:06;;;;;;;5.15;0.85;;;10.70;77.00;;;;;;5069275;28;20468;-76
2022/04/01 00:17:32;;;;;;;2.22;0.82;;;10.70;77.20;;;;;;5068843;28;20406;-77
2022/04/01 00:19:58;;;;;;;;;;;10.60;77.60;;;;;;5069177;28;20090;-77
2022/04/01 00:22:24;;;;;;;2.80;0.75;;;10.60;77.50;;;;;;5067856;28;19920;-77
2022/04/01 00:24:50;;;;;;;3.40;0.88;;;10.60;77.50;;;;;;5068107;28;20473;-78
2022/04/01 00:27:16;;;;;;;2.13;0.70;;;10.60;77.70;;;;;;5067642;28;20051;-77
2022/04/01 00:29:42;;;;;;;1.67;0.57;;;10.60;77.60;;;;;;5068920;28;20028;-77
2022/04/01 00:32:09;;;;;;;1.52;0.60;;;10.50;77.60;;;;;;5067807;28;20085;-77
2022/04/01 00:34:36;;;;;;;0.73;0.40;;;10.50;77.70;;;;;;5051229;28;20116;-76
2022/04/01 00:37:04;;;;;;;2.33;0.68;;;10.50;77.00;;;;;;5084395;28;20119;-76
2022/04/01 00:39:31;;;;;;;2.75;0.80;;;10.60;77.30;;;;;;5068345;28;20539;-77
2022/04/01 00:42:00;;;;;;;2.75;0.90;;;10.60;77.20;;;;;;5073862;28;20107;-77
2022/04/01 00:44:30;;;;;;;1.05;0.50;;;10.60;77.20;;;;;;5070055;28;20043;-76
2022/04/01 00:47:15;;;;;;;3.90;0.90;;;10.60;77.20;;;;;;5069309;28;20408;-76
2022/04/01 00:49:44;;;;;;;3.63;0.70;;;10.60;76.60;;;;;;5048074;28;20107;-77
2022/04/01 00:52:13;;;;;;;1.85;0.55;;;10.70;76.90;;;;;;5061977;28;20044;-77
2022/04/01 00:54:39;;;;;;;7.32;2.30;;;10.70;76.70;;;;;;5071544;28;20032;-77
2022/04/01 00:57:08;;;;;;;7.55;3.08;;;10.70;76.80;;;;;;5071394;28;20029;-76
2022/04/01 00:59:35;;;;;;;7.70;2.90;;;10.70;76.90;;;;;;5071903;28;20040;-77
2022/04/01 01:02:01;;;;;;;6.15;2.22;;;10.70;77.10;;;;;;5050878;28;20029;-77
2022/04/01 01:04:28;;;;;;;6.43;2.03;;;10.80;77.30;;;;;;5081724;28;20047;-77
2022/04/01 01:06:57;;;;;;;5.82;2.22;;;10.80;76.90;;;;;;5070852;28;20090;-76
2022/04/01 01:09:28;;;;;;;6.22;2.38;;;10.80;77.20;;;;;;5072319;28;20032;-77
2022/04/01 01:11:55;;;;;;;6.25;2.83;;;10.90;77.10;;;;;;5071050;28;20036;-76
2022/04/01 01:14:40;;;;;;;6.82;2.70;;;10.90;77.20;;;;;;5072920;28;20024;-76
2022/04/01 01:17:13;;;;;;;5.68;2.70;;;10.90;77.30;;;;;;5070701;28;20029;-76
2022/04/01 01:19:45;;;;;;;6.68;2.72;;;10.90;77.10;;;;;;5071115;28;20032;-76
2022/04/01 01:22:13;;;;;;;5.43;2.65;;;11.00;76.80;;;;;;5051116;28;20049;-77
2022/04/01 01:24:41;;;;;;;9.05;4.55;;;11.10;76.80;;;;;;5057627;28;20040;-76
2022/04/01 01:27:08;;;;;;;18.27;12.35;;;11.00;76.80;;;;;;5070166;28;20033;-76
2022/04/01 01:29:38;;;;;;;15.65;8.93;;;11.00;77.00;;;;;;5071683;28;20043;-76
2022/04/01 01:32:10;;;;;;;6.25;2.80;;;11.00;77.30;;;;;;5070284;28;20041;-77
2022/04/01 01:34:39;;;;;;;2.95;1.33;;;10.90;77.40;;;;;;5054048;28;20029;-76
2022/04/01 01:37:05;;;;;;;1.67;0.77;;;10.90;77.40;;;;;;5053641;28;20032;-77
2022/04/01 01:39:31;;;;;;;1.08;0.50;;;10.90;77.40;;;;;;5070815;28;20037;-76
2022/04/01 01:41:58;;;;;;;2.00;0.70;;;10.90;77.20;;;;;;5070317;28;20107;-76
2022/04/01 01:44:25;;;;;;;2.53;0.75;;;10.80;76.90;;;;;;5071153;28;20025;-76
2022/04/01 01:46:52;;;;;;;1.70;0.70;;;10.80;76.70;;;;;;5050223;28;20095;-77
2022/04/01 01:49:20;;;;;;;1.15;0.40;;;10.80;76.80;;;;;;5062463;28;20033;-76
2022/04/01 01:54:45;;;;;;;0.63;0.30;;;10.70;76.80;;;;;;5070690;28;20050;-76
2022/04/01 01:57:24;;;;;;;0.80;0.40;;;10.70;76.70;;;;;;5070183;28;23006;-76
2022/04/01 01:59:52;;;;;;;1.50;0.50;;;10.70;76.10;;;;;;5070727;28;20078;-76
2022/04/01 02:02:19;;;;;;;1.67;0.50;;;10.60;76.50;;;;;;5053280;28;20050;-76
2022/04/01 02:04:46;;;;;;;0.68;0.40;;;10.70;76.40;;;;;;5070593;28;20033;-76
2022/04/01 02:07:13;;;;;;;1.67;0.57;;;10.70;76.30;;;;;;5069909;28;20500;-76
2022/04/01 02:09:43;;;;;;;2.22;0.75;;;10.70;75.50;;;;;;5049941;28;20067;-76
2022/04/01 02:12:09;;;;;;;1.85;0.70;;;10.70;75.90;;;;;;5052296;28;20075;-76
2022/04/01 02:14:36;;;;;;;1.42;0.70;;;10.80;75.90;;;;;;5053941;28;20032;-76
2022/04/01 02:17:03;;;;;;;0.60;0.30;;;10.80;75.80;;;;;;5069393;28;20041;-76
2022/04/01 02:19:31;;;;;;;1.75;0.70;;;10.80;75.80;;;;;;5070087;28;20037;-76
2022/04/01 02:21:57;;;;;;;2.55;0.82;;;10.80;76.30;;;;;;5069730;28;20078;-76
2022/04/01 02:24:24;;;;;;;4.38;1.45;;;10.70;76.50;;;;;;5049931;28;20116;-76
2022/04/01 02:26:51;;;;;;;5.35;1.60;;;10.70;76.20;;;;;;5032597;28;20045;-76
2022/04/01 02:29:19;;;;;;;4.78;1.58;;;10.60;77.00;;;;;;5069785;28;20082;-76
2022/04/01 02:31:49;;;;;;;4.35;1.80;;;10.60;77.20;;;;;;5069591;28;20037;-76
2022/04/01 02:34:15;;;;;;;4.85;1.73;;;10.60;77.40;;;;;;5069905;28;20025;-76
2022/04/01 02:36:41;;;;;;;3.35;1.48;;;10.60;77.40;;;;;;5052261;28;20037;-75
2022/04/01 02:39:07;;;;;;;4.22;1.65;;;10.70;77.30;;;;;;5052774;28;20401;-77
2022/04/01 02:41:33;;;;;;;;;;;10.70;76.90;;;;;;5056366;28;20103;-76
2022/04/01 02:46:46;;;;;;;14.52;5.80;;;10.80;76.40;;;;;;5070500;28;20043;-76
2022/04/01 02:49:15;;;;;;;10.32;3.70;;;10.80;76.00;;;;;;5069401;28;20485;-76
2022/04/01 02:51:45;;;;;;;5.38;2.25;;;10.80;76.10;;;;;;5068919;28;20039;-76
2022/04/01 02:54:12;;;;;;;6.55;2.53;;;10.90;76.30;;;;;;5069739;28;20459;-76
2022/04/01 02:56:40;;;;;;;6.03;2.40;;;10.90;76.40;;;;;;5069509;28;20028;-76
2022/04/01 02:59:08;;;;;;;4.88;2.13;;;10.90;76.40;;;;;;5069219;28;20029;-76
2022/04/01 03:01:38;;;;;;;4.35;1.92;;;10.80;76.60;;;;;;5051943;28;20493;-76
2022/04/01 03:04:23;;;;;;;8.43;3.28;;;10.80;77.10;;;;;;5069103;28;20033;-76
2022/04/01 03:06:49;;;;;;;7.15;3.67;;;10.80;77.10;;;;;;5069709;28;20071;-76
2022/04/01 03:09:15;;;;;;;;;;;10.80;77.10;;;;;;5071251;28;20082;-76
2022/04/01 03:11:42;;;;;;;8.73;4.60;;;10.80;76.90;;;;;;5070545;28;19916;-76
2022/04/01 03:14:11;;;;;;;8.60;3.92;;;10.80;76.60;;;;;;5068574;28;20074;-76
2022/04/01 03:16:39;;;;;;;7.78;3.60;;;10.80;76.30;;;;;;5068582;28;20040;-76
2022/04/01 03:19:08;;;;;;;6.95;2.88;;;10.90;76.30;;;;;;5068946;28;20029;-76
2022/04/01 03:21:55;;;;;;;4.40;1.80;;;10.90;76.20;;;;;;5068528;28;20039;-76
2022/04/01 03:24:21;;;;;;;2.93;1.20;;;10.90;75.70;;;;;;5068830;28;20033;-77
2022/04/01 03:26:47;;;;;;;;;;;10.90;76.40;;;;;;5052426;28;20040;-76
2022/04/01 03:29:14;;;;;;;4.13;1.60;;;10.80;76.20;;;;;;5085646;28;19970;-76
2022/04/01 03:31:40;;;;;;;4.18;1.80;;;10.80;76.30;;;;;;5068372;28;20055;-76
2022/04/01 03:34:07;;;;;;;4.18;1.75;;;10.80;76.40;;;;;;5068885;28;20032;-76
2022/04/01 03:36:34;;;;;;;4.97;1.80;;;10.80;76.30;;;;;;5067980;28;20501;-76
2022/04/01 03:39:01;;;;;;;4.65;1.40;;;10.80;76.40;;;;;;5068782;28;20425;-76
2022/04/01 03:41:30;;;;;;;3.45;1.42;;;10.80;76.60;;;;;;5052059;28;20115;-76
2022/04/01 03:43:57;;;;;;;4.53;1.33;;;10.70;76.90;;;;;;5068867;28;20036;-76
2022/04/01 03:46:30;;;;;;;3.63;1.52;;;10.70;77.40;;;;;;5068100;28;20524;-76
2022/04/01 03:49:38;;;;;;;3.83;1.58;;;10.60;77.40;;;;;;5051940;28;20040;-76
2022/04/01 03:52:07;;;;;;;4.82;1.38;;;10.60;77.60;;;;;;5069360;28;20063;-76
2022/04/01 03:54:34;;;;;;;3.40;1.40;;;10.60;77.60;;;;;;5068701;28;20029;-76
2022/04/01 03:57:01;;;;;;;3.30;1.42;;;10.50;77.70;;;;;;5068287;28;20032;-76
2022/04/01 04:02:13;;;;;;;4.53;2.00;;;10.60;77.00;;;;;;5068382;28;20063;-76
2022/04/01 04:04:40;;;;;;;4.00;1.75;;;10.60;77.40;;;;;;5069794;28;20043;-76
2022/04/01 04:07:09;;;;;;;4.90;1.73;;;10.60;77.30;;;;;;5067884;28;20502;-76
2022/04/01 04:09:56;;;;;;;3.03;1.40;;;10.70;77.40;;;;;;5068392;28;20037;-77
2022/04/01 04:12:23;;;;;;;3.65;1.42;;;10.60;77.30;;;;;;5069343;28;20090;-76
2022/04/01 04:14:54;;;;;;;3.00;1.20;;;10.70;76.60;;;;;;5068744;28;20528;-76
2022/04/01 04:17:37;;;;;;;6.82;1.75;;;10.70;77.00;;;;;;5069746;28;20048;-76
2022/04/01 04:20:29;;;;;;;5.00;2.13;;;10.70;76.90;;;;;;5069200;28;20044;-77
2022/04/01 04:23:08;;;;;;;11.85;7.63;;;10.70;76.90;;;;;;5069521;28;20058;-77
2022/04/01 04:25:37;;;;;;;20.17;13.23;;;10.70;76.80;;;;;;5067852;28;20098;-76
2022/04/01 04:28:12;;;;;;;26.52;16.92;;;10.70;76.70;;;;;;5071875;28;20044;-76
2022/04/01 04:30:49;;;;;;;17.85;11.65;;;10.80;76.70;;;;;;5071272;28;20170;-76
2022/04/01 04:33:21;;;;;;;9.80;5.57;;;10.80;76.60;;;;;;5055491;28;20119;-76
2022/04/01 04:35:49;;;;;;;7.25;3.30;;;10.80;76.50;;;;;;5071934;28;20036;-77
2022/04/01 04:38:18;;;;;;;8.27;5.03;;;10.80;76.60;;;;;;5071940;28;20078;-77
2022/04/01 04:40:44;;;;;;;12.77;8.48;;;10.80;76.60;;;;;;5071591;28;20448;-77
2022/04/01 04:43:12;;;;;;;;;;;10.80;76.00;;;;;;5073392;28;20040;-76
2022/04/01 04:45:38;;;;;;;10.63;5.38;;;10.80;76.40;;;;;;5071248;28;20300;-77
2022/04/01 04:48:05;;;;;;;;;;;10.80;76.40;;;;;;5072127;28;20420;-76
2022/04/01 04:50:32;;;;;;;5.75;2.92;;;10.80;76.30;;;;;;5073098;28;19971;-76
2022/04/01 04:52:58;;;;;;;4.55;1.67;;;10.70;76.50;;;;;;5088607;28;20044;-76
2022/04/01 04:55:25;;;;;;;6.45;2.67;;;10.70;76.20;;;;;;5071172;28;20140;-76
2022/04/01 04:57:53;;;;;;;9.98;3.35;;;10.70;76.20;;;;;;5071495;28;20390;-76
2022/04/01 05:00:21;;;;;;;8.43;3.17;;;10.70;76.60;;;;;;5071029;28;20036;-76
2022/04/01 05:03:44;;;;;;;6.18;2.47;;;10.80;76.40;;;;;;5071267;28;20036;-77
2022/04/01 05:06:16;;;;;;;4.85;2.35;;;10.80;76.30;;;;;;5070582;28;20497;-76
2022/04/01 05:09:40;;;;;;;4.88;2.10;;;10.80;76.00;;;;;;5055063;28;20047;-76
2022/04/01 05:12:29;;;;;;;5.15;2.17;;;10.90;76.10;;;;;;5070440;28;20051;-76
2022/04/01 05:15:36;;;;;;;8.07;2.60;;;10.80;76.00;;;;;;5072343;28;20036;-76
2022/04/01 05:18:29;;;;;;;34.00;16.48;;;10.90;76.10;;;;;;5052398;28;20433;-77
2022/04/01 05:21:01;;;;;;;8.75;3.00;;;10.90;76.00;;;;;;5051572;28;20390;-77
2022/04/01 05:23:50;;;;;;;7.13;3.40;;;10.80;75.90;;;;;;5051592;28;20029;-76
2022/04/01 05:26:25;;;;;;;6.75;2.97;;;10.90;76.30;;;;;;5050736;28;21289;-77
2022/04/01 05:29:14;;;;;;;6.13;3.20;;;10.80;76.00;;;;;;5052085;28;20044;-76
2022/04/01 05:31:54;;;;;;;8.45;4.00;;;10.90;76.10;;;;;;5050345;28;20047;-76
2022/04/01 05:34:43;;;;;;;6.45;2.83;;;10.90;75.80;;;;;;5067623;28;20401;-77
2022/04/01 05:37:10;;;;;;;8.10;4.57;;;11.00;75.80;;;;;;5049693;28;20037;-76
2022/04/01 05:39:42;;;;;;;9.32;3.47;;;11.00;75.50;;;;;;5051942;28;20050;-77
2022/04/01 05:42:08;;;;;;;7.90;4.30;;;11.00;75.50;;;;;;5065694;28;20024;-77
2022/04/01 05:44:35;;;;;;;;;;;11.00;75.70;;;;;;5071909;28;20111;-76
2022/04/01 05:47:04;;;;;;;7.15;3.45;;;11.00;75.50;;;;;;5071752;28;19916;-76
2022/04/01 05:49:31;;;;;;;7.22;2.55;;;11.00;75.40;;;;;;5070544;28;20144;-77
2022/04/01 05:51:58;;;;;;;5.22;2.13;;;11.00;75.40;;;;;;5069813;28;20128;-77
2022/04/01 05:54:26;;;;;;;10.07;3.25;;;11.00;75.70;;;;;;5071788;28;20082;-76
2022/04/01 05:56:53;;;;;;;9.93;5.80;;;11.00;76.00;;;;;;5070003;28;20035;-76
2022/04/01 05:59:21;;;;;;;;;;;11.00;76.10;;;;;;5072500;28;20039;-77
2022/04/01 06:02:38;;;;;;;4.03;1.70;;;11.00;75.70;;;;;;5053303;28;19923;-76
2022/04/01 06:05:34;;;;;;;6.53;3.13;;;11.10;75.50;;;;;;5071323;28;20548;-76
2022/04/01 06:08:56;;;;;;;3.85;1.40;;;11.10;75.30;;;;;;5070304;28;20048;-77
2022/04/01 06:11:49;;;;;;;6.80;3.33;;;11.20;75.30;;;;;;5086244;28;20813;-76
2022/04/01 06:15:02;;;;;;;4.55;1.58;;;11.20;75.10;;;;;;5070159;28;20044;-77
2022/04/01 06:18:03;;;;;;;6.32;2.03;;;11.20;75.20;;;;;;5071559;28;20051;-76
2022/04/01 06:20:34;;;;;;;4.30;1.30;;;11.30;75.10;;;;;;5069725;28;20055;-76
2022/04/01 06:23:29;;;;;;;2.60;1.20;;;11.30;74.90;;;;;;5069962;28;20049;-77
2022/04/01 06:26:14;;;;;;;6.15;3.83;;;11.40;74.70;;;;;;5052552;28;20514;-76
2022/04/01 06:29:09;;;;;;;4.10;1.70;;;11.40;74.70;;;;;;5069901;28;20083;-76
2022/04/01 06:31:36;;;;;;;7.50;3.55;;;11.40;74.80;;;;;;5070523;28;20388;-76
2022/04/01 06:34:23;;;;;;;4.35;1.65;;;11.40;74.90;;;;;;5069977;28;20044;-76
2022/04/01 06:37:12;;;;;;;7.45;4.50;;;11.40;74.90;;;;;;5052474;28;20116;-76
2022/04/01 06:40:16;;;;;;;19.25;9.93;;;11.40;74.70;;;;;;5052908;28;20350;-77
2022/04/01 06:42:45;;;;;;;6.32;3.03;;;11.50;74.60;;;;;;5049301;28;20033;-76
2022/04/01 06:47:56;;;;;;;13.40;7.25;;;11.60;74.20;;;;;;5063746;28;20540;-76
2022/04/01 06:50:23;;;;;;;12.73;6.60;;;11.60;74.20;;;;;;5050020;28;20041;-77
2022/04/01 06:52:49;;;;;;;;;;;11.60;73.50;;;;;;5033328;28;20094;-77
2022/04/01 06:55:15;;;;;;;15.13;9.10;;;11.80;74.00;;;;;;5065539;28;20324;-76
2022/04/01 06:57:42;;;;;;;15.15;9.93;;;11.70;73.90;;;;;;5049246;28;20037;-77
2022/04/01 07:00:13;;;;;;;5.55;2.10;;;11.80;73.20;;;;;;5050197;28;20032;-77
2022/04/01 07:02:41;;;;;;;3.28;1.30;;;11.80;73.70;;;;;;5051458;28;20037;-77
2022/04/01 07:05:09;;;;;;;4.05;1.50;;;11.80;73.70;;;;;;5048776;28;20068;-76
2022/04/01 07:07:37;;;;;;;22.42;17.95;;;11.90;73.60;;;;;;5050898;28;20453;-77
2022/04/01 07:10:23;;;;;;;16.25;11.95;;;11.90;73.40;;;;;;5069009;28;20394;-77
2022/04/01 07:12:49;;;;;;;5.13;1.90;;;12.00;73.30;;;;;;5052294;28;20074;-77
2022/04/01 07:15:16;;;;;;;3.92;1.35;;;12.10;73.10;;;;;;5068789;28;20035;-76
2022/04/01 07:17:42;;;;;;;8.32;2.40;;;12.10;72.90;;;;;;5070980;28;20073;-76
2022/04/01 07:20:10;;;;;;;19.40;12.73;;;12.20;72.80;;;;;;5069754;28;20480;-77
2022/04/01 07:22:38;;;;;;;6.72;2.83;;;12.20;72.60;;;;;;5068841;28;20044;-76
2022/04/01 07:25:05;;;;;;;5.95;2.72;;;12.30;72.70;;;;;;5069867;28;20436;-76
2022/04/01 07:27:32;;;;;;;2.15;1.00;;;12.40;72.30;;;;;;5051844;28;20033;-76
2022/04/01 07:29:58;;;;;;;5.55;2.90;;;12.40;72.10;;;;;;5068786;28;20042;-77
2022/04/01 07:32:32;;;;;;;12.93;7.93;;;12.50;72.30;;;;;;5068981;28;20032;-77
2022/04/01 07:35:19;;;;;;;9.98;5.93;;;12.50;71.90;;;;;;5068938;28;20387;-76
2022/04/01 07:37:46;;;;;;;9.00;4.13;;;12.50;71.80;;;;;;5070281;28;20033;-76
2022/04/01 07:40:16;;;;;;;14.63;7.70;;;12.50;72.10;;;;;;5069573;28;20037;-77
2022/04/01 07:42:42;;;;;;;40.25;29.35;;;12.50;72.10;;;;;;5068555;28;20040;-76
2022/04/01 07:45:09;;;;;;;14.07;11.00;;;12.50;72.10;;;;;;5051571;28;20544;-77
2022/04/01 07:47:35;;;;;;;16.13;11.52;;;12.50;71.90;;;;;;5069245;28;20066;-77
2022/04/01 07:50:03;;;;;;;19.75;11.70;;;12.50;72.10;;;;;;5068885;28;20504;-76
2022/04/01 07:55:18;;;;;;;12.32;7.63;;;12.50;71.90;;;;;;5060524;28;20047;-76
2022/04/01 07:57:47;;;;;;;15.18;8.15;;;12.40;71.80;;;;;;5068498;28;20116;-77
2022/04/01 08:00:32;;;;;;;11.20;6.10;;;12.40;71.90;;;;;;5069174;28;20036;-77
2022/04/01 08:02:58;;;;;;;6.70;3.30;;;12.40;72.20;;;;;;5074235;28;20090;-77
2022/04/01 08:05:24;;;;;;;7.40;2.80;;;12.30;72.20;;;;;;5072475;28;20032;-77
2022/04/01 08:07:50;;;;;;;5.03;2.30;;;12.30;72.40;;;;;;5072421;28;20048;-76
2022/04/01 08:10:16;;;;;;;6.60;4.10;;;12.30;72.40;;;;;;5071996;28;20135;-77
2022/04/01 08:12:45;;;;;;;6.68;3.20;;;12.40;72.20;;;;;;5072442;28;20029;-77
2022/04/01 08:15:13;;;;;;;6.10;2.88;;;12.40;71.90;;;;;;5072936;28;20123;-76
2022/04/01 08:17:39;;;;;;;6.05;3.10;;;12.50;71.60;;;;;;5073050;28;20033;-76
2022/04/01 08:20:07;;;;;;;3.17;1.42;;;12.40;71.10;;;;;;5072041;28;20070;-76
2022/04/01 08:22:33;;;;;;;4.35;2.00;;;12.50;71.70;;;;;;5072247;28;20037;-76
2022/04/01 08:24:59;;;;;;;6.43;3.00;;;12.60;71.50;;;;;;5072467;28;20078;-77
2022/04/01 08:27:25;;;;;;;5.80;2.92;;;12.70;71.30;;;;;;5071538;28;20051;-77
2022/04/01 08:29:55;;;;;;;12.95;7.43;;;12.80;70.80;;;;;;5072510;28;20033;-77
2022/04/01 08:32:22;;;;;;;12.52;6.72;;;13.00;71.30;;;;;;5073258;28;20040;-76
2022/04/01 08:34:48;;;;;;;16.55;9.98;;;13.10;69.90;;;;;;5071881;28;20040;-76
2022/04/01 08:37:14;;;;;;;6.28;2.80;;;13.40;69.50;;;;;;5072998;28;20423;-76
2022/04/01 08:39:43;;;;;;;5.63;2.65;;;13.60;69.00;;;;;;5073251;28;20512;-77
2022/04/01 08:42:10;;;;;;;7.28;3.38;;;13.80;68.50;;;;;;5071158;28;20028;-77
2022/04/01 08:44:41;;;;;;;18.00;8.80;;;14.00;67.50;;;;;;5072213;28;20036;-77
2022/04/01 08:47:26;;;;;;;5.50;2.20;;;14.30;67.60;;;;;;5072452;28;20040;-76
2022/04/01 08:49:54;;;;;;;5.38;2.50;;;14.50;67.00;;;;;;5072764;28;20044;-77
2022/04/01 08:52:21;;;;;;;9.02;5.05;;;14.60;66.80;;;;;;5071251;28;20102;-77
2022/04/01 08:54:47;;;;;;;;;;;14.60;66.80;;;;;;5072280;28;20029;-76
2022/04/01 08:57:18;;;;;;;3.75;1.60;;;14.60;67.60;;;;;;5071219;28;19921;-77
2022/04/01 08:59:44;;;;;;;4.28;1.67;;;14.70;66.90;;;;;;5072461;28;20021;-77
2022/04/01 09:02:11;;;;;;;;;;;14.90;66.40;;;;;;5054684;28;20032;-77
2022/04/01 09:04:38;;;;;;;5.50;2.35;;;15.00;66.60;;;;;;5071653;28;19920;-77
2022/04/01 09:07:23;;;;;;;4.43;1.85;;;15.20;65.50;;;;;;5054097;28;20032;-75
2022/04/01 09:10:19;;;;;;;5.80;2.15;;;15.50;65.30;;;;;;5054285;28;20033;-78
2022/04/01 09:13:06;;;;;;;3.10;1.15;;;15.90;64.60;;;;;;5070632;28;20386;-77
2022/04/01 09:15:51;;;;;;;6.05;2.13;;;15.90;63.90;;;;;;5070837;28;20493;-77
2022/04/01 09:18:56;;;;;;;3.78;1.30;;;15.70;63.90;;;;;;5071244;28;20094;-77
2022/04/01 09:21:44;;;;;;;5.13;1.90;;;15.50;64.40;;;;;;5070548;28;20045;-76
2022/04/01 09:24:10;;;;;;;4.05;1.50;;;15.60;64.30;;;;;;5071094;28;20039;-77
2022/04/01 09:26:40;;;;;;;6.70;2.80;;;15.80;63.40;;;;;;5070884;28;20460;-77
2022/04/01 09:29:09;;;;;;;5.93;3.38;;;15.80;62.70;;;;;;5070904;28;20501;-76
2022/04/01 09:31:55;;;;;;;4.45;1.50;;;16.00;62.50;;;;;;5070361;28;20440;-77
2022/04/01 09:34:30;;;;;;;7.30;3.28;;;16.60;61.60;;;;;;5054208;28;20029;-77
2022/04/01 09:36:56;;;;;;;7.03;2.55;;;17.00;59.40;;;;;;5070243;28;20552;-77
2022/04/01 09:39:24;;;;;;;6.93;2.97;;;17.10;59.60;;;;;;5070552;28;20036;-76
2022/04/01 09:41:54;;;;;;;8.13;4.10;;;17.10;59.70;;;;;;5075550;28;20036;-75
2022/04/01 09:44:40;;;;;;;8.02;3.65;;;16.90;59.70;;;;;;5091096;28;20051;-77
2022/04/01 09:47:07;;;;;;;5.70;2.20;;;16.60;59.90;;;;;;5090166;28;20047;-76
2022/04/01 09:49:39;;;;;;;10.30;5.38;;;16.50;60.40;;;;;;5091009;28;20047;-76
2022/04/01 09:52:15;;;;;;;5.70;2.45;;;16.40;60.80;;;;;;5090093;28;20037;-76
2022/04/01 09:55:11;;;;;;;6.47;2.80;;;16.40;60.00;;;;;;5090640;28;20050;-76
2022/04/01 09:57:37;;;;;;;7.45;2.53;;;16.40;59.90;;;;;;5078652;28;20427;-76
2022/04/01 10:00:05;;;;;;;;;;;17.50;58.60;;;;;;5070873;28;20039;-76
2022/04/01 10:02:31;;;;;;;3.00;1.20;;;18.80;56.70;;;;;;5071790;28;19923;-77
2022/04/01 10:04:58;;;;;;;;;;;20.20;53.00;;;;;;5050808;28;20044;-76
2022/04/01 10:07:26;;;;;;;4.82;1.40;;;21.10;53.00;;;;;;5062507;28;19930;-75
2022/04/01 10:09:55;;;;;;;3.72;1.48;;;21.30;50.30;;;;;;5070050;28;20117;-76
2022/04/01 10:12:26;;;;;;;5.38;1.90;;;21.00;49.90;;;;;;5069568;28;20040;-77
2022/04/01 10:14:58;;;;;;;3.17;1.30;;;20.60;51.00;;;;;;5069984;28;20528;-77
2022/04/01 10:17:29;;;;;;;6.93;2.30;;;20.30;51.20;;;;;;5053584;28;20029;-77
2022/04/01 10:19:58;;;;;;;8.15;3.08;;;20.00;51.50;;;;;;5069809;28;20041;-76
2022/04/01 10:22:27;;;;;;;4.88;2.00;;;19.80;51.80;;;;;;5069251;28;20309;-77
2022/04/01 10:25:32;;;;;;;5.50;2.30;;;19.50;51.80;;;;;;5069505;28;20067;-76
2022/04/01 10:28:04;;;;;;;5.13;1.90;;;19.10;53.30;;;;;;5069393;28;20040;-76
2022/04/01 10:30:32;;;;;;;3.85;1.40;;;18.90;53.00;;;;;;5069453;28;20452;-77
2022/04/01 10:32:59;;;;;;;3.58;1.88;;;18.80;52.20;;;;;;5069613;28;20453;-77
2022/04/01 10:35:44;;;;;;;5.15;2.53;;;18.80;52.30;;;;;;5066176;28;20025;-77
2022/04/01 10:38:10;;;;;;;11.93;4.45;;;19.10;52.50;;;;;;5049518;28;20048;-77
2022/04/01 10:40:40;;;;;;;4.60;2.13;;;19.20;51.50;;;;;;5048884;28;20559;-77
2022/04/01 10:43:44;;;;;;;7.53;2.75;;;19.00;50.70;;;;;;5080758;28;20052;-77
2022/04/01 10:46:14;;;;;;;14.13;5.45;;;18.80;51.90;;;;;;5089194;28;20078;-77
2022/04/01 10:52:24;;;;;;;8.90;4.38;;;18.00;52.90;;;;;;5089280;28;20539;-77
2022/04/01 10:55:09;;;;;;;8.52;4.10;;;17.70;53.40;;;;;;5069148;28;20090;-76
2022/04/01 10:58:08;;;;;;;9.80;4.18;;;17.50;54.00;;;;;;5069397;28;20044;-77
2022/04/01 11:00:34;;;;;;;7.32;2.67;;;17.50;54.20;;;;;;5063558;28;20383;-76
2022/04/01 11:03:22;;;;;;;12.80;5.10;;;17.40;54.00;;;;;;5065689;28;20033;-76
2022/04/01 11:05:49;;;;;;;9.20;4.55;;;17.30;54.00;;;;;;5049409;28;20035;-77
2022/04/01 11:09:09;;;;;;;8.30;3.67;;;17.30;54.20;;;;;;5049089;28;20439;-77
2022/04/01 11:11:35;;;;;;;8.75;2.85;;;17.30;53.70;;;;;;5030180;28;20053;-77
2022/04/01 11:14:21;;;;;;;9.82;4.53;;;17.40;53.80;;;;;;5047442;28;20498;-76
2022/04/01 11:17:06;;;;;;;20.00;10.23;;;17.30;54.00;;;;;;5050293;28;20098;-77
2022/04/01 11:19:32;;;;;;;13.45;6.97;;;17.40;53.30;;;;;;5049182;28;20041;-77
2022/04/01 11:21:59;;;;;;;7.57;3.55;;;17.60;53.20;;;;;;5048295;28;20424;-77
2022/04/01 11:24:45;;;;;;;4.32;1.50;;;17.50;53.20;;;;;;5065616;28;20523;-77
2022/04/01 11:27:30;;;;;;;7.13;2.93;;;17.50;53.50;;;;;;5031963;28;22734;-76
2022/04/01 11:30:20;;;;;;;5.38;1.70;;;17.60;52.80;;;;;;5048705;28;20103;-76
2022/04/01 11:32:52;;;;;;;5.30;2.40;;;17.60;52.40;;;;;;5061224;28;20099;-76
2022/04/01 11:35:44;;;;;;;7.60;4.00;;;17.90;52.00;;;;;;5048202;28;20409;-78
2022/04/01 11:38:30;;;;;;;7.78;2.50;;;18.20;51.90;;;;;;5049877;28;20045;-76
2022/04/01 11:41:00;;;;;;;15.88;3.47;;;18.40;51.00;;;;;;5031615;28;20044;-76
2022/04/01 11:43:29;;;;;;;6.43;3.72;;;18.80;50.40;;;;;;5067022;28;20071;-77
2022/04/01 11:46:15;;;;;;;6.43;2.05;;;19.00;50.00;;;;;;5068232;28;20696;-77
2022/04/01 11:48:44;;;;;;;4.72;2.13;;;18.90;50.70;;;;;;5068500;28;20409;-77
2022/04/01 11:51:28;;;;;;;6.30;3.28;;;19.00;50.70;;;;;;5031565;28;20071;-77
2022/04/01 11:53:56;;;;;;;5.00;2.72;;;19.00;51.00;;;;;;5048522;28;20029;-76
2022/04/01 11:56:27;;;;;;;4.82;2.45;;;18.80;51.80;;;;;;5031871;28;20076;-76
2022/04/01 11:59:12;;;;;;;6.22;2.95;;;18.40;52.40;;;;;;5048367;28;20041;-77
2022/04/01 12:01:54;;;;;;;6.22;2.95;;;18.30;52.90;;;;;;5062982;28;20029;-76
2022/04/01 12:04:48;;;;;;;7.55;4.05;;;18.40;52.60;;;;;;5070766;28;20410;-76
2022/04/01 12:10:01;;;;;;;7.28;3.40;;;19.70;49.80;;;;;;5069554;28;20511;-78
2022/04/01 12:12:27;;;;;;;11.18;4.70;;;20.40;48.90;;;;;;5068011;28;20485;-76
2022/04/01 12:15:13;;;;;;;7.22;3.40;;;21.80;46.30;;;;;;5068231;28;20045;-76
2022/04/01 12:17:58;;;;;;;10.38;4.22;;;23.50;43.70;;;;;;5069001;28;20036;-78
2022/04/01 12:20:26;;;;;;;8.40;3.83;;;24.30;40.90;;;;;;5067945;28;20033;-78
2022/04/01 12:22:52;;;;;;;10.07;4.45;;;24.30;41.00;;;;;;5068212;28;20070;-78
2022/04/01 12:25:19;;;;;;;7.32;4.05;;;23.90;42.00;;;;;;5069376;28;20089;-78
2022/04/01 12:28:05;;;;;;;5.95;3.13;;;23.90;41.30;;;;;;5068058;28;20033;-78
2022/04/01 12:30:51;;;;;;;8.02;3.97;;;24.30;40.30;;;;;;5051036;28;20120;-76
2022/04/01 12:33:21;;;;;;;5.60;3.28;;;24.80;39.70;;;;;;5068706;28;20040;-76
2022/04/01 12:35:49;;;;;;;6.25;3.40;;;26.10;37.40;;;;;;5068332;28;20047;-78
2022/04/01 12:38:16;;;;;;;8.07;4.80;;;27.20;35.60;;;;;;5069342;28;20033;-76
2022/04/01 12:41:20;;;;;;;8.55;4.57;;;26.80;35.00;;;;;;5067700;28;20409;-78
2022/04/01 12:43:54;;;;;;;11.25;4.20;;;25.50;37.80;;;;;;5049764;28;20061;-78
2022/04/01 12:47:04;;;;;;;7.30;4.57;;;24.90;38.40;;;;;;5055704;28;20486;-78
2022/04/01 12:49:33;;;;;;;8.32;3.85;;;25.40;38.40;;;;;;5064673;28;20041;-79
2022/04/01 12:52:04;;;;;;;7.60;4.80;;;26.50;34.90;;;;;;5077025;28;20248;-78
2022/04/01 12:54:53;;;;;;;6.07;3.92;;;26.60;34.60;;;;;;5071214;28;20431;-78
2022/04/01 12:57:20;;;;;;;6.55;4.00;;;29.50;31.60;;;;;;5071166;28;20050;-76
2022/04/01 12:59:49;;;;;;;11.13;4.10;;;29.70;29.60;;;;;;5055364;28;20028;-77
2022/04/01 13:02:35;;;;;;;6.55;3.53;;;28.70;30.60;;;;;;5071123;28;20079;-76
2022/04/01 13:05:12;;;;;;;11.30;4.97;;;27.90;31.90;;;;;;5071685;28;20405;-76
2022/04/01 13:07:39;;;;;;;9.30;6.05;;;27.40;32.70;;;;;;5071243;28;20416;-79
2022/04/01 13:10:24;;;;;;;11.20;6.30;;;27.60;32.30;;;;;;5072756;28;20040;-77
2022/04/01 13:12:52;;;;;;;8.10;4.95;;;28.60;30.20;;;;;;5054884;28;20071;-76
2022/04/01 13:15:38;;;;;;;9.25;4.72;;;27.50;31.30;;;;;;5068221;28;21392;-78
2022/04/01 13:18:05;;;;;;;9.27;5.27;;;26.20;33.50;;;;;;5052844;28;20400;-77
2022/04/01 13:20:35;;;;;;;13.63;5.40;;;25.00;34.50;;;;;;5071711;28;20037;-79
2022/04/01 13:23:03;;;;;;;8.45;5.22;;;24.20;36.20;;;;;;5072223;28;20048;-79
2022/04/01 13:25:31;;;;;;;7.25;4.63;;;23.50;37.00;;;;;;5053091;28;20497;-77
2022/04/01 13:27:58;;;;;;;10.13;4.18;;;22.70;37.90;;;;;;5050744;28;20128;-78
2022/04/01 13:30:25;;;;;;;7.53;4.55;;;22.20;38.90;;;;;;5050227;28;20139;-79
2022/04/01 13:32:51;;;;;;;8.52;4.50;;;21.80;39.60;;;;;;5033800;28;20057;-76
2022/04/01 13:35:17;;;;;;;25.42;10.70;;;21.40;40.50;;;;;;5070273;28;20535;-77
2022/04/01 13:37:44;;;;;;;17.33;8.23;;;21.00;41.80;;;;;;5070393;28;20397;-77
2022/04/01 13:40:12;;;;;;;8.88;5.78;;;20.70;41.90;;;;;;5070088;28;20044;-78